sensor_id;sensor_type;location;lat;lon;timestamp;pressure;altitude;pressure_sealevel;temperature;humidity
70407;BME280;57821;52.202;0.154;2022-07-23T00:00:52;101914.72;;;18.66;57.04
70407;BME280;57821;52.202;0.154;2022-07-23T00:03:19;101894.63;;;18.63;57.01
70407;BME280;57821;52.202;0.154;2022-07-23T00:05:45;101905.88;;;18.70;57.50
70407;BME280;57821;52.202;0.154;2022-07-23T00:08:12;101901.47;;;18.70;57.22
70407;BME280;57821;52.202;0.154;2022-07-23T00:10:40;101906.72;;;18.72;56.94
70407;BME280;57821;52.202;0.154;2022-07-23T00:13:07;101898.00;;;18.70;57.25
70407;BME280;57821;52.202;0.154;2022-07-23T00:15:34;101899.78;;;18.69;57.16
70407;BME280;57821;52.202;0.154;2022-07-23T00:18:00;101898.09;;;18.64;56.89
70407;BME280;57821;52.202;0.154;2022-07-23T00:20:27;101909.53;;;18.63;57.45
70407;BME280;57821;52.202;0.154;2022-07-23T00:22:54;101848.88;;;18.27;57.26
70407;BME280;57821;52.202;0.154;2022-07-23T00:25:22;101839.38;;;18.22;57.13
70407;BME280;57821;52.202;0.154;2022-07-23T00:27:56;101914.81;;;18.60;57.49
70407;BME280;57821;52.202;0.154;2022-07-23T00:30:23;101903.53;;;18.53;57.70
70407;BME280;57821;52.202;0.154;2022-07-23T00:32:52;101931.44;;;18.60;57.19
70407;BME280;57821;52.202;0.154;2022-07-23T00:35:24;101870.69;;;18.31;57.87
70407;BME280;57821;52.202;0.154;2022-07-23T00:37:52;101920.97;;;18.59;57.54
70407;BME280;57821;52.202;0.154;2022-07-23T00:40:19;101917.53;;;18.52;57.45
70407;BME280;57821;52.202;0.154;2022-07-23T00:42:45;101921.03;;;18.56;57.47
70407;BME280;57821;52.202;0.154;2022-07-23T00:45:12;101916.69;;;18.55;57.58
70407;BME280;57821;52.202;0.154;2022-07-23T00:47:39;101913.16;;;18.53;57.85
70407;BME280;57821;52.202;0.154;2022-07-23T00:50:08;101908.06;;;18.45;57.74
70407;BME280;57821;52.202;0.154;2022-07-23T00:52:36;101920.22;;;18.51;57.93
70407;BME280;57821;52.202;0.154;2022-07-23T00:55:05;101902.00;;;18.41;58.14
70407;BME280;57821;52.202;0.154;2022-07-23T00:57:32;101907.13;;;18.49;57.64
70407;BME280;57821;52.202;0.154;2022-07-23T00:59:59;101909.75;;;18.49;57.70
70407;BME280;57821;52.202;0.154;2022-07-23T01:02:26;101894.13;;;18.41;57.75
70407;BME280;57821;52.202;0.154;2022-07-23T01:04:54;101901.00;;;18.47;57.65
70407;BME280;57821;52.202;0.154;2022-07-23T01:07:21;101913.28;;;18.46;57.92
70407;BME280;57821;52.202;0.154;2022-07-23T01:09:49;101888.94;;;18.37;58.07
70407;BME280;57821;52.202;0.154;2022-07-23T01:12:17;101902.84;;;18.43;58.43
70407;BME280;57821;52.202;0.154;2022-07-23T01:14:43;101898.50;;;18.41;58.38
70407;BME280;57821;52.202;0.154;2022-07-23T01:17:10;101898.53;;;18.39;58.06
70407;BME280;57821;52.202;0.154;2022-07-23T01:19:37;101904.69;;;18.38;58.74
70407;BME280;57821;52.202;0.154;2022-07-23T01:22:04;101889.94;;;18.30;58.23
70407;BME280;57821;52.202;0.154;2022-07-23T01:24:30;101883.91;;;18.25;58.44
70407;BME280;57821;52.202;0.154;2022-07-23T01:27:00;101896.91;;;18.34;58.38
70407;BME280;57821;52.202;0.154;2022-07-23T01:29:27;101890.00;;;18.28;58.49
70407;BME280;57821;52.202;0.154;2022-07-23T01:31:56;101899.56;;;18.31;58.63
70407;BME280;57821;52.202;0.154;2022-07-23T01:34:22;101894.31;;;18.31;58.70
70407;BME280;57821;52.202;0.154;2022-07-23T01:36:49;101897.81;;;18.30;58.33
70407;BME280;57821;52.202;0.154;2022-07-23T01:39:17;101889.06;;;18.29;58.82
70407;BME280;57821;52.202;0.154;2022-07-23T01:41:44;101885.59;;;18.29;58.31
70407;BME280;57821;52.202;0.154;2022-07-23T01:44:17;101884.78;;;18.27;58.77
70407;BME280;57821;52.202;0.154;2022-07-23T01:46:43;101877.78;;;18.26;58.46
70407;BME280;57821;52.202;0.154;2022-07-23T01:49:10;101881.28;;;18.25;58.68
70407;BME280;57821;52.202;0.154;2022-07-23T01:52:03;101877.00;;;18.21;59.12
70407;BME280;57821;52.202;0.154;2022-07-23T01:54:50;101878.78;;;18.19;59.00
70407;BME280;57821;52.202;0.154;2022-07-23T01:57:17;101877.09;;;18.16;59.00
70407;BME280;57821;52.202;0.154;2022-07-23T01:59:44;101875.38;;;18.14;59.63
70407;BME280;57821;52.202;0.154;2022-07-23T02:02:11;101876.25;;;18.13;59.30
70407;BME280;57821;52.202;0.154;2022-07-23T02:04:37;101864.94;;;18.11;59.47
70407;BME280;57821;52.202;0.154;2022-07-23T02:07:04;101867.59;;;18.06;59.28
70407;BME280;57821;52.202;0.154;2022-07-23T02:09:31;101874.63;;;18.05;59.41
70407;BME280;57821;52.202;0.154;2022-07-23T02:11:58;101879.88;;;18.05;59.05
70407;BME280;57821;52.202;0.154;2022-07-23T02:14:25;101878.16;;;18.04;59.28
70407;BME280;57821;52.202;0.154;2022-07-23T02:16:52;101876.41;;;18.03;59.30
70407;BME280;57821;52.202;0.154;2022-07-23T02:19:19;101866.78;;;18.04;59.88
70407;BME280;57821;52.202;0.154;2022-07-23T02:21:45;101871.19;;;18.03;59.15
70407;BME280;57821;52.202;0.154;2022-07-23T02:24:12;101871.22;;;18.00;59.56
70407;BME280;57821;52.202;0.154;2022-07-23T02:26:40;101859.25;;;17.84;59.30
70407;BME280;57821;52.202;0.154;2022-07-23T02:29:08;101881.88;;;17.91;59.47
70407;BME280;57821;52.202;0.154;2022-07-23T02:31:34;101878.38;;;17.89;59.73
70407;BME280;57821;52.202;0.154;2022-07-23T02:34:02;101862.81;;;17.80;59.96
70407;BME280;57821;52.202;0.154;2022-07-23T02:36:29;101877.56;;;17.87;60.05
70407;BME280;57821;52.202;0.154;2022-07-23T02:38:57;101878.47;;;17.86;60.10
70407;BME280;57821;52.202;0.154;2022-07-23T02:41:27;101875.84;;;17.86;59.96
70407;BME280;57821;52.202;0.154;2022-07-23T02:43:55;101869.72;;;17.84;60.02
70407;BME280;57821;52.202;0.154;2022-07-23T02:46:21;101878.50;;;17.83;60.38
70407;BME280;57821;52.202;0.154;2022-07-23T02:48:48;101876.78;;;17.81;60.08
70407;BME280;57821;52.202;0.154;2022-07-23T02:51:15;101880.31;;;17.80;60.19
70407;BME280;57821;52.202;0.154;2022-07-23T02:53:50;101875.94;;;17.79;60.27
70407;BME280;57821;52.202;0.154;2022-07-23T02:56:16;101880.31;;;17.78;60.66
70407;BME280;57821;52.202;0.154;2022-07-23T02:58:43;101875.06;;;17.78;60.77
70407;BME280;57821;52.202;0.154;2022-07-23T03:01:09;101865.44;;;17.79;60.60
70407;BME280;57821;52.202;0.154;2022-07-23T03:03:36;101870.69;;;17.80;60.38
70407;BME280;57821;52.202;0.154;2022-07-23T03:06:04;101875.03;;;17.81;60.23
70407;BME280;57821;52.202;0.154;2022-07-23T03:08:30;101845.53;;;17.67;60.45
70407;BME280;57821;52.202;0.154;2022-07-23T03:10:57;101860.22;;;17.77;60.64
70407;BME280;57821;52.202;0.154;2022-07-23T03:13:24;101862.75;;;17.83;60.51
70407;BME280;57821;52.202;0.154;2022-07-23T03:15:51;101867.09;;;17.84;60.87
70407;BME280;57821;52.202;0.154;2022-07-23T03:18:18;101862.75;;;17.83;60.70
70407;BME280;57821;52.202;0.154;2022-07-23T03:20:45;101868.00;;;17.83;60.63
70407;BME280;57821;52.202;0.154;2022-07-23T03:23:12;101871.50;;;17.82;60.76
70407;BME280;57821;52.202;0.154;2022-07-23T03:25:39;101873.25;;;17.83;61.03
70407;BME280;57821;52.202;0.154;2022-07-23T03:28:05;101880.22;;;17.84;60.96
70407;BME280;57821;52.202;0.154;2022-07-23T03:30:32;101880.22;;;17.86;60.75
70407;BME280;57821;52.202;0.154;2022-07-23T03:32:59;101875.84;;;17.85;61.33
70407;BME280;57821;52.202;0.154;2022-07-23T03:35:26;101874.94;;;17.87;61.07
70407;BME280;57821;52.202;0.154;2022-07-23T03:38:13;101871.47;;;17.85;60.77
70407;BME280;57821;52.202;0.154;2022-07-23T03:40:39;101874.97;;;17.84;60.93
70407;BME280;57821;52.202;0.154;2022-07-23T03:43:06;101868.00;;;17.83;61.24
70407;BME280;57821;52.202;0.154;2022-07-23T03:45:33;101869.72;;;17.84;60.99
70407;BME280;57821;52.202;0.154;2022-07-23T03:47:59;101870.63;;;17.83;61.53
70407;BME280;57821;52.202;0.154;2022-07-23T03:50:27;101869.78;;;17.81;61.19
70407;BME280;57821;52.202;0.154;2022-07-23T03:52:55;101875.03;;;17.81;61.46
70407;BME280;57821;52.202;0.154;2022-07-23T03:55:21;101868.97;;;17.78;61.04
70407;BME280;57821;52.202;0.154;2022-07-23T03:57:48;101863.78;;;17.75;61.73
70407;BME280;57821;52.202;0.154;2022-07-23T04:00:15;101870.78;;;17.74;61.72
70407;BME280;57821;52.202;0.154;2022-07-23T04:02:44;101853.41;;;17.65;61.97
70407;BME280;57821;52.202;0.154;2022-07-23T04:05:11;101863.78;;;17.73;61.67
70407;BME280;57821;52.202;0.154;2022-07-23T04:07:40;101868.16;;;17.73;62.00
70407;BME280;57821;52.202;0.154;2022-07-23T04:10:07;101864.69;;;17.72;62.03
70407;BME280;57821;52.202;0.154;2022-07-23T04:12:34;101864.69;;;17.72;62.01
70407;BME280;57821;52.202;0.154;2022-07-23T04:15:02;101864.69;;;17.72;61.86
70407;BME280;57821;52.202;0.154;2022-07-23T04:17:28;101863.81;;;17.72;62.26
70407;BME280;57821;52.202;0.154;2022-07-23T04:19:55;101863.81;;;17.72;62.30
70407;BME280;57821;52.202;0.154;2022-07-23T04:22:24;101860.31;;;17.73;62.56
70407;BME280;57821;52.202;0.154;2022-07-23T04:24:50;101859.44;;;17.72;62.24
70407;BME280;57821;52.202;0.154;2022-07-23T04:27:18;101853.31;;;17.72;62.18
70407;BME280;57821;52.202;0.154;2022-07-23T04:29:45;101860.31;;;17.73;62.42
70407;BME280;57821;52.202;0.154;2022-07-23T04:32:13;101862.91;;;17.74;62.96
70407;BME280;57821;52.202;0.154;2022-07-23T04:34:40;101851.63;;;17.69;62.76
70407;BME280;57821;52.202;0.154;2022-07-23T04:37:07;101861.00;;;17.82;62.53
70407;BME280;57821;52.202;0.154;2022-07-23T04:39:35;101865.34;;;17.86;62.69
70407;BME280;57821;52.202;0.154;2022-07-23T04:42:02;101858.28;;;17.88;62.38
70407;BME280;57821;52.202;0.154;2022-07-23T04:44:30;101866.06;;;17.94;62.90
70407;BME280;57821;52.202;0.154;2022-07-23T04:46:57;101861.66;;;17.98;62.68
70407;BME280;57821;52.202;0.154;2022-07-23T04:49:24;101854.56;;;18.01;62.38
70407;BME280;57821;52.202;0.154;2022-07-23T04:51:51;101856.25;;;18.05;62.68
70407;BME280;57821;52.202;0.154;2022-07-23T04:54:17;101858.88;;;18.05;62.46
70407;BME280;57821;52.202;0.154;2022-07-23T04:56:44;101858.84;;;18.07;62.99
70407;BME280;57821;52.202;0.154;2022-07-23T04:59:11;101852.72;;;18.08;63.18
70407;BME280;57821;52.202;0.154;2022-07-23T05:01:39;101853.56;;;18.10;62.94
70407;BME280;57821;52.202;0.154;2022-07-23T05:04:05;101850.00;;;18.13;62.97
70407;BME280;57821;52.202;0.154;2022-07-23T05:06:35;101850.78;;;18.18;63.00
70407;BME280;57821;52.202;0.154;2022-07-23T05:09:02;101840.34;;;18.16;63.02
70407;BME280;57821;52.202;0.154;2022-07-23T05:11:30;101856.78;;;18.26;63.25
70407;BME280;57821;52.202;0.154;2022-07-23T05:13:56;101849.75;;;18.28;63.18
70407;BME280;57821;52.202;0.154;2022-07-23T05:16:23;101849.69;;;18.31;63.14
70407;BME280;57821;52.202;0.154;2022-07-23T05:18:52;101858.34;;;18.36;63.25
70407;BME280;57821;52.202;0.154;2022-07-23T05:21:19;101861.81;;;18.38;62.82
70407;BME280;57821;52.202;0.154;2022-07-23T05:23:46;101854.78;;;18.40;62.74
70407;BME280;57821;52.202;0.154;2022-07-23T05:26:13;101861.75;;;18.41;63.37
70407;BME280;57821;52.202;0.154;2022-07-23T05:28:40;101854.72;;;18.43;62.93
70407;BME280;57821;52.202;0.154;2022-07-23T05:31:12;101855.47;;;18.50;62.76
70407;BME280;57821;52.202;0.154;2022-07-23T05:33:38;101853.63;;;18.53;62.84
70407;BME280;57821;52.202;0.154;2022-07-23T05:36:05;101860.63;;;18.57;62.80
70407;BME280;57821;52.202;0.154;2022-07-23T05:38:37;101856.13;;;18.62;63.16
70407;BME280;57821;52.202;0.154;2022-07-23T05:41:04;101854.31;;;18.64;62.56
70407;BME280;57821;52.202;0.154;2022-07-23T05:43:31;101855.13;;;18.68;62.83
70407;BME280;57821;52.202;0.154;2022-07-23T05:46:02;101838.69;;;18.58;62.80
70407;BME280;57821;52.202;0.154;2022-07-23T05:48:29;101855.91;;;18.73;62.52
70407;BME280;57821;52.202;0.154;2022-07-23T05:51:08;101855.03;;;18.72;62.41
70407;BME280;57821;52.202;0.154;2022-07-23T05:53:35;101852.41;;;18.72;62.72
70407;BME280;57821;52.202;0.154;2022-07-23T05:56:08;101847.16;;;18.72;62.62
70407;BME280;57821;52.202;0.154;2022-07-23T05:58:36;101848.91;;;18.73;63.05
70407;BME280;57821;52.202;0.154;2022-07-23T06:01:03;101819.31;;;18.64;62.77
70407;BME280;57821;52.202;0.154;2022-07-23T06:03:38;101815.88;;;18.62;62.77
70407;BME280;57821;52.202;0.154;2022-07-23T06:06:06;101829.66;;;18.71;63.08
70407;BME280;57821;52.202;0.154;2022-07-23T06:08:33;101837.53;;;18.73;63.47
70407;BME280;57821;52.202;0.154;2022-07-23T06:11:00;101839.16;;;18.78;63.29
70407;BME280;57821;52.202;0.154;2022-07-23T06:13:28;101848.69;;;18.82;62.82
70407;BME280;57821;52.202;0.154;2022-07-23T06:15:54;101843.34;;;18.87;63.44
70407;BME280;57821;52.202;0.154;2022-07-23T06:18:21;101845.91;;;18.90;63.48
70407;BME280;57821;52.202;0.154;2022-07-23T06:20:48;101834.53;;;18.90;63.37
70407;BME280;57821;52.202;0.154;2022-07-23T06:23:17;101851.91;;;18.98;62.94
70407;BME280;57821;52.202;0.154;2022-07-23T06:25:44;101854.44;;;19.01;63.32
70407;BME280;57821;52.202;0.154;2022-07-23T06:28:10;101850.03;;;19.03;63.59
70407;BME280;57821;52.202;0.154;2022-07-23T06:30:37;101851.69;;;19.07;63.34
70407;BME280;57821;52.202;0.154;2022-07-23T06:33:04;101853.41;;;19.10;63.23
70407;BME280;57821;52.202;0.154;2022-07-23T06:35:31;101856.84;;;19.12;63.23
70407;BME280;57821;52.202;0.154;2022-07-23T06:37:57;101838.53;;;19.07;63.60
70407;BME280;57821;52.202;0.154;2022-07-23T06:40:24;101841.03;;;19.13;63.58
70407;BME280;57821;52.202;0.154;2022-07-23T06:42:51;101850.44;;;19.23;63.78
70407;BME280;57821;52.202;0.154;2022-07-23T06:45:21;101849.41;;;19.31;63.81
70407;BME280;57821;52.202;0.154;2022-07-23T06:47:48;101858.94;;;19.36;63.41
70407;BME280;57821;52.202;0.154;2022-07-23T06:50:14;101849.25;;;19.38;63.29
70407;BME280;57821;52.202;0.154;2022-07-23T06:52:41;101849.97;;;19.46;63.67
70407;BME280;57821;52.202;0.154;2022-07-23T06:55:09;101848.94;;;19.52;62.90
70407;BME280;57821;52.202;0.154;2022-07-23T06:57:35;101849.69;;;19.57;63.06
70407;BME280;57821;52.202;0.154;2022-07-23T07:00:03;101847.72;;;19.66;63.34
70407;BME280;57821;52.202;0.154;2022-07-23T07:02:30;101851.97;;;19.74;63.50
70407;BME280;57821;52.202;0.154;2022-07-23T07:04:57;101861.47;;;19.79;62.69
70407;BME280;57821;52.202;0.154;2022-07-23T07:07:30;101851.66;;;19.86;62.47
70407;BME280;57821;52.202;0.154;2022-07-23T07:09:57;101862.88;;;19.92;62.62
70407;BME280;57821;52.202;0.154;2022-07-23T07:12:23;101861.84;;;19.98;63.16
70407;BME280;57821;52.202;0.154;2022-07-23T07:14:50;101864.31;;;20.04;62.46
70407;BME280;57821;52.202;0.154;2022-07-23T07:17:17;101866.91;;;20.07;62.03
70407;BME280;57821;52.202;0.154;2022-07-23T07:19:43;101867.69;;;20.10;61.88
70407;BME280;57821;52.202;0.154;2022-07-23T07:22:10;101864.91;;;20.15;62.33
70407;BME280;57821;52.202;0.154;2022-07-23T07:24:36;101869.22;;;20.19;61.96
70407;BME280;57821;52.202;0.154;2022-07-23T07:27:04;101876.13;;;20.23;62.42
70407;BME280;57821;52.202;0.154;2022-07-23T07:29:30;101868.97;;;20.28;61.69
70407;BME280;57821;52.202;0.154;2022-07-23T07:31:57;101858.34;;;20.33;61.62
70407;BME280;57821;52.202;0.154;2022-07-23T07:34:24;101858.94;;;20.44;62.09
70407;BME280;57821;52.202;0.154;2022-07-23T07:36:51;101852.53;;;20.53;61.33
70407;BME280;57821;52.202;0.154;2022-07-23T07:39:17;101857.66;;;20.59;61.27
70407;BME280;57821;52.202;0.154;2022-07-23T07:41:44;101857.47;;;20.65;60.81
70407;BME280;57821;52.202;0.154;2022-07-23T07:44:10;101862.56;;;20.71;60.73
70407;BME280;57821;52.202;0.154;2022-07-23T07:46:37;101866.66;;;20.81;60.98
70407;BME280;57821;52.202;0.154;2022-07-23T07:49:03;101858.50;;;20.90;59.96
70407;BME280;57821;52.202;0.154;2022-07-23T07:51:31;101843.50;;;20.92;59.61
70407;BME280;57821;52.202;0.154;2022-07-23T07:53:58;101845.91;;;21.00;59.46
70407;BME280;57821;52.202;0.154;2022-07-23T07:56:25;101855.22;;;21.11;58.71
70407;BME280;57821;52.202;0.154;2022-07-23T07:58:51;101854.25;;;21.15;58.54
70407;BME280;57821;52.202;0.154;2022-07-23T08:01:18;101856.72;;;21.21;57.84
70407;BME280;57821;52.202;0.154;2022-07-23T08:03:45;101844.44;;;21.20;57.90
70407;BME280;57821;52.202;0.154;2022-07-23T08:06:12;101856.25;;;21.37;57.50
70407;BME280;57821;52.202;0.154;2022-07-23T08:08:38;101854.53;;;21.36;57.25
70407;BME280;57821;52.202;0.154;2022-07-23T08:11:05;101855.13;;;21.44;57.30
70407;BME280;57821;52.202;0.154;2022-07-23T08:13:31;101853.28;;;21.47;56.96
70407;BME280;57821;52.202;0.154;2022-07-23T08:15:58;101850.59;;;21.49;56.26
70407;BME280;57821;52.202;0.154;2022-07-23T08:18:26;101810.03;;;21.25;56.77
70407;BME280;57821;52.202;0.154;2022-07-23T08:20:53;101849.47;;;21.56;56.32
70407;BME280;57821;52.202;0.154;2022-07-23T08:23:19;101857.19;;;21.62;56.67
70407;BME280;57821;52.202;0.154;2022-07-23T08:25:46;101851.50;;;21.74;56.19
70407;BME280;57821;52.202;0.154;2022-07-23T08:28:14;101850.44;;;21.80;55.62
70407;BME280;57821;52.202;0.154;2022-07-23T08:30:43;101787.19;;;21.50;56.22
70407;BME280;57821;52.202;0.154;2022-07-23T08:33:13;101850.78;;;21.97;55.65
70407;BME280;57821;52.202;0.154;2022-07-23T08:36:00;101844.88;;;22.15;55.12
70407;BME280;57821;52.202;0.154;2022-07-23T08:38:27;101821.75;;;22.22;54.79
70407;BME280;57821;52.202;0.154;2022-07-23T08:40:54;101844.03;;;22.39;53.71
70407;BME280;57821;52.202;0.154;2022-07-23T08:43:23;101793.66;;;22.19;54.04
70407;BME280;57821;52.202;0.154;2022-07-23T08:45:53;101780.41;;;22.21;54.14
70407;BME280;57821;52.202;0.154;2022-07-23T08:48:22;101780.88;;;22.32;53.58
70407;BME280;57821;52.202;0.154;2022-07-23T08:50:52;101795.09;;;22.52;53.40
70407;BME280;57821;52.202;0.154;2022-07-23T08:53:20;101770.69;;;22.46;53.50
70407;BME280;57821;52.202;0.154;2022-07-23T08:55:49;101821.28;;;22.83;52.98
70407;BME280;57821;52.202;0.154;2022-07-23T08:58:17;101821.22;;;22.85;52.81
70407;BME280;57821;52.202;0.154;2022-07-23T09:00:45;101822.78;;;22.90;52.52
70407;BME280;57821;52.202;0.154;2022-07-23T09:03:25;101811.41;;;22.88;52.08
70407;BME280;57821;52.202;0.154;2022-07-23T09:05:52;101823.16;;;23.03;51.83
70407;BME280;57821;52.202;0.154;2022-07-23T09:08:21;101767.41;;;22.86;51.63
70407;BME280;57821;52.202;0.154;2022-07-23T09:13:24;101822.84;;;23.34;50.27
70407;BME280;57821;52.202;0.154;2022-07-23T09:15:52;101795.84;;;23.24;49.94
70407;BME280;57821;52.202;0.154;2022-07-23T09:18:28;101791.09;;;23.34;49.35
70407;BME280;57821;52.202;0.154;2022-07-23T09:21:14;101828.50;;;23.68;49.15
70407;BME280;57821;52.202;0.154;2022-07-23T09:29:20;101819.69;;;24.10;48.28
70407;BME280;57821;52.202;0.154;2022-07-23T09:31:57;101822.88;;;24.18;48.85
70407;BME280;57821;52.202;0.154;2022-07-23T09:34:30;101829.78;;;24.22;48.63
70407;BME280;57821;52.202;0.154;2022-07-23T09:37:09;101821.75;;;24.24;48.31
70407;BME280;57821;52.202;0.154;2022-07-23T09:39:36;101831.03;;;24.34;47.61
70407;BME280;57821;52.202;0.154;2022-07-23T09:42:17;101806.59;;;24.27;47.49
70407;BME280;57821;52.202;0.154;2022-07-23T09:44:44;101848.69;;;24.53;47.28
70407;BME280;57821;52.202;0.154;2022-07-23T09:47:11;101831.22;;;24.49;47.31
70407;BME280;57821;52.202;0.154;2022-07-23T09:49:37;101839.38;;;24.64;47.82
70407;BME280;57821;52.202;0.154;2022-07-23T09:52:04;101844.34;;;24.71;46.98
70407;BME280;57821;52.202;0.154;2022-07-23T09:54:39;101823.16;;;24.71;46.67
70407;BME280;57821;52.202;0.154;2022-07-23T09:57:06;101842.06;;;24.82;46.41
70407;BME280;57821;52.202;0.154;2022-07-23T09:59:36;101791.16;;;24.55;46.00
70407;BME280;57821;52.202;0.154;2022-07-23T10:02:05;101848.03;;;24.87;46.04
70407;BME280;57821;52.202;0.154;2022-07-23T10:04:42;101852.44;;;24.88;46.17
70407;BME280;57821;52.202;0.154;2022-07-23T10:07:37;101863.22;;;25.04;46.61
70407;BME280;57821;52.202;0.154;2022-07-23T10:10:32;101854.88;;;25.12;45.82
70407;BME280;57821;52.202;0.154;2022-07-23T10:13:17;101850.03;;;25.21;46.09
70407;BME280;57821;52.202;0.154;2022-07-23T10:15:48;101853.78;;;25.34;46.42
70407;BME280;57821;52.202;0.154;2022-07-23T10:18:14;101863.47;;;25.54;44.71
70407;BME280;57821;52.202;0.154;2022-07-23T10:20:41;101842.50;;;25.67;45.37
70407;BME280;57821;52.202;0.154;2022-07-23T10:25:59;101848.94;;;26.14;42.51
70407;BME280;57821;52.202;0.154;2022-07-23T10:31:39;101862.75;;;26.73;41.29
70407;BME280;57821;52.202;0.154;2022-07-23T10:34:41;101815.66;;;26.57;39.53
70407;BME280;57821;52.202;0.154;2022-07-23T10:37:17;101839.81;;;26.86;40.64
70407;BME280;57821;52.202;0.154;2022-07-23T10:39:47;101849.56;;;27.03;40.49
70407;BME280;57821;52.202;0.154;2022-07-23T10:42:16;101850.47;;;27.19;40.21
70407;BME280;57821;52.202;0.154;2022-07-23T10:44:44;101852.69;;;27.42;39.73
70407;BME280;57821;52.202;0.154;2022-07-23T10:47:11;101844.06;;;27.68;39.56
70407;BME280;57821;52.202;0.154;2022-07-23T10:49:38;101846.84;;;27.97;39.23
70407;BME280;57821;52.202;0.154;2022-07-23T10:57:11;101822.78;;;28.56;36.17
70407;BME280;57821;52.202;0.154;2022-07-23T11:02:29;101783.22;;;28.63;34.98
70407;BME280;57821;52.202;0.154;2022-07-23T11:05:21;101778.53;;;28.67;34.81
70407;BME280;57821;52.202;0.154;2022-07-23T11:16:08;101815.94;;;29.22;33.93
70407;BME280;57821;52.202;0.154;2022-07-23T11:24:06;101812.69;;;29.58;32.60
70407;BME280;57821;52.202;0.154;2022-07-23T11:32:00;101802.88;;;29.98;31.57
70407;BME280;57821;52.202;0.154;2022-07-23T11:36:57;101789.72;;;30.20;30.03
70407;BME280;57821;52.202;0.154;2022-07-23T11:39:27;101763.72;;;30.09;29.81
70407;BME280;57821;52.202;0.154;2022-07-23T11:41:54;101793.78;;;30.26;30.55
70407;BME280;57821;52.202;0.154;2022-07-23T11:44:37;101792.59;;;30.30;29.16
70407;BME280;57821;52.202;0.154;2022-07-23T11:47:09;101767.69;;;30.16;29.93
70407;BME280;57821;52.202;0.154;2022-07-23T11:49:36;101795.78;;;30.35;29.68
70407;BME280;57821;52.202;0.154;2022-07-23T11:52:13;101744.56;;;30.03;28.47
70407;BME280;57821;52.202;0.154;2022-07-23T11:55:08;101782.97;;;30.14;28.68
70407;BME280;57821;52.202;0.154;2022-07-23T11:57:39;101777.72;;;30.00;28.48
70407;BME280;57821;52.202;0.154;2022-07-23T12:00:09;101768.06;;;29.85;28.92
70407;BME280;57821;52.202;0.154;2022-07-23T12:02:42;101768.69;;;29.89;28.78
70407;BME280;57821;52.202;0.154;2022-07-23T12:05:13;101729.72;;;29.59;28.50
70407;BME280;57821;52.202;0.154;2022-07-23T12:07:43;101760.22;;;29.82;28.68
70407;BME280;57821;52.202;0.154;2022-07-23T12:12:59;101765.31;;;30.12;29.25
70407;BME280;57821;52.202;0.154;2022-07-23T12:15:31;101716.31;;;30.11;28.59
70407;BME280;57821;52.202;0.154;2022-07-23T12:18:00;101785.44;;;30.55;27.53
70407;BME280;57821;52.202;0.154;2022-07-23T12:20:30;101771.97;;;30.57;26.49
70407;BME280;57821;52.202;0.154;2022-07-23T12:22:58;101734.81;;;30.40;26.36
70407;BME280;57821;52.202;0.154;2022-07-23T12:25:28;101782.31;;;30.36;26.88
70407;BME280;57821;52.202;0.154;2022-07-23T12:28:07;101776.78;;;30.27;26.65
70407;BME280;57821;52.202;0.154;2022-07-23T12:30:40;101767.88;;;30.13;26.83
70407;BME280;57821;52.202;0.154;2022-07-23T12:33:08;101761.25;;;30.06;27.20
70407;BME280;57821;52.202;0.154;2022-07-23T12:35:39;101782.63;;;30.06;26.66
70407;BME280;57821;52.202;0.154;2022-07-23T12:38:18;101757.38;;;29.85;27.09
70407;BME280;57821;52.202;0.154;2022-07-23T12:40:50;101725.78;;;29.52;27.36
70407;BME280;57821;52.202;0.154;2022-07-23T12:43:29;101723.28;;;29.36;27.59
70407;BME280;57821;52.202;0.154;2022-07-23T12:46:10;101715.78;;;29.29;28.03
70407;BME280;57821;52.202;0.154;2022-07-23T12:48:39;101717.56;;;29.28;28.09
70407;BME280;57821;52.202;0.154;2022-07-23T12:51:08;101754.50;;;29.49;28.08
70407;BME280;57821;52.202;0.154;2022-07-23T12:53:41;101758.53;;;29.42;28.42
70407;BME280;57821;52.202;0.154;2022-07-23T12:56:13;101753.19;;;29.42;28.45
70407;BME280;57821;52.202;0.154;2022-07-23T13:04:12;101726.06;;;29.35;27.70
70407;BME280;57821;52.202;0.154;2022-07-23T13:06:44;101743.34;;;29.29;28.03
70407;BME280;57821;52.202;0.154;2022-07-23T13:09:21;101676.53;;;28.90;28.08
70407;BME280;57821;52.202;0.154;2022-07-23T13:11:49;101726.19;;;29.19;28.18
70407;BME280;57821;52.202;0.154;2022-07-23T13:14:17;101733.88;;;29.24;28.29
70407;BME280;57821;52.202;0.154;2022-07-23T13:16:48;101726.94;;;29.21;28.75
70407;BME280;57821;52.202;0.154;2022-07-23T13:19:15;101736.13;;;29.17;28.58
70407;BME280;57821;52.202;0.154;2022-07-23T13:21:45;101732.69;;;29.15;28.84
70407;BME280;57821;52.202;0.154;2022-07-23T13:24:12;101713.25;;;29.13;28.84
70407;BME280;57821;52.202;0.154;2022-07-23T13:26:39;101711.25;;;29.17;28.92
70407;BME280;57821;52.202;0.154;2022-07-23T13:29:06;101711.78;;;29.22;28.79
70407;BME280;57821;52.202;0.154;2022-07-23T13:31:37;101716.81;;;29.26;28.82
70407;BME280;57821;52.202;0.154;2022-07-23T13:34:05;101714.06;;;29.28;28.31
70407;BME280;57821;52.202;0.154;2022-07-23T13:36:34;101715.53;;;29.32;28.42
70407;BME280;57821;52.202;0.154;2022-07-23T13:39:00;101698.88;;;29.28;28.59
70407;BME280;57821;52.202;0.154;2022-07-23T13:41:28;101694.84;;;29.35;28.83
70407;BME280;57821;52.202;0.154;2022-07-23T13:43:54;101681.22;;;29.53;28.59
70407;BME280;57821;52.202;0.154;2022-07-23T13:46:21;101703.44;;;29.66;28.35
70407;BME280;57821;52.202;0.154;2022-07-23T13:48:47;101694.06;;;29.73;28.00
70407;BME280;57821;52.202;0.154;2022-07-23T13:51:15;101691.72;;;29.81;28.36